createdAt,value
2016-06-15T00:00:33.940Z,0
2016-06-15T00:01:19.788Z,0
2016-06-15T00:02:19.806Z,0
2016-06-15T00:03:19.825Z,0
2016-06-15T00:04:19.828Z,0
2016-06-15T00:05:20.175Z,0
2016-06-15T00:06:19.897Z,0
2016-06-15T00:08:19.949Z,0
2016-06-15T00:09:19.968Z,0
2016-06-15T00:10:19.988Z,0
2016-06-15T00:11:20.021Z,0
2016-06-15T00:12:34.212Z,0
2016-06-15T00:14:20.093Z,0
2016-06-15T00:15:20.128Z,0
2016-06-15T00:16:20.146Z,0
2016-06-15T00:18:20.215Z,0
2016-06-15T00:19:34.249Z,0
2016-06-15T00:20:20.471Z,0
2016-06-15T00:21:20.272Z,0
2016-06-15T00:22:20.289Z,0
2016-06-15T00:23:20.309Z,0
2016-06-15T00:24:34.514Z,0
2016-06-15T00:25:20.206Z,0
2016-06-15T00:26:20.379Z,0
2016-06-15T00:27:34.587Z,0
2016-06-15T00:28:20.432Z,0
2016-06-15T00:29:20.452Z,0
2016-06-15T00:30:20.485Z,0
2016-06-15T00:31:34.692Z,0
2016-06-15T00:32:20.523Z,0
2016-06-15T00:33:20.401Z,0
2016-06-15T00:34:20.686Z,0
2016-06-15T00:35:35.392Z,0
2016-06-15T00:36:20.630Z,0
2016-06-15T00:37:34.835Z,0
2016-06-15T00:38:34.854Z,0
2016-06-15T00:39:20.545Z,0
2016-06-15T00:40:34.908Z,0
2016-06-15T00:41:20.738Z,0
2016-06-15T00:42:20.789Z,0
2016-06-15T00:43:34.823Z,0
2016-06-15T00:44:20.670Z,0
2016-06-15T00:45:20.845Z,0
2016-06-15T00:46:20.863Z,0
2016-06-15T00:47:35.085Z,0
2016-06-15T00:48:20.932Z,0
2016-06-15T00:49:20.950Z,0
2016-06-15T00:51:21.004Z,0
2016-06-15T00:52:21.022Z,0
2016-06-15T00:53:21.042Z,0
2016-06-15T00:54:35.248Z,0
2016-06-15T00:55:35.266Z,0
2016-06-15T00:56:21.113Z,0
2016-06-15T00:58:35.384Z,0
2016-06-15T00:59:35.423Z,0
2016-06-15T01:01:21.377Z,0
2016-06-15T01:02:21.432Z,0
2016-06-15T01:03:21.469Z,0
2016-06-15T01:04:21.516Z,0
2016-06-15T01:05:37.048Z,0
2016-06-15T01:06:35.767Z,0
2016-06-15T01:07:21.626Z,0
2016-06-15T01:08:21.651Z,0
2016-06-15T01:09:35.863Z,0
2016-06-15T01:11:21.598Z,0
2016-06-15T01:12:21.761Z,0
2016-06-15T01:13:21.798Z,0
2016-06-15T01:15:36.026Z,0
2016-06-15T01:16:21.875Z,0
2016-06-15T01:17:21.910Z,0
2016-06-15T01:18:21.915Z,0
2016-06-15T01:19:21.934Z,0
2016-06-15T01:20:21.985Z,0
2016-06-15T01:21:22.004Z,0
2016-06-15T01:22:22.024Z,0
2016-06-15T01:23:22.043Z,0
2016-06-15T01:24:22.061Z,0
2016-06-15T01:25:22.080Z,0
2016-06-15T01:26:22.130Z,0
2016-06-15T01:27:22.149Z,0
2016-06-15T01:28:22.167Z,0
2016-06-15T01:29:22.030Z,0
2016-06-15T01:30:22.204Z,0
2016-06-15T01:32:36.288Z,0
2016-06-15T01:33:22.277Z,0
2016-06-15T01:34:22.154Z,0
2016-06-15T01:35:23.580Z,0
2016-06-15T01:36:22.347Z,0
2016-06-15T01:37:22.367Z,0
2016-06-15T01:38:22.401Z,0
2016-06-15T01:39:22.435Z,0
2016-06-15T01:40:22.298Z,0
2016-06-15T01:41:50.848Z,0
2016-06-15T01:42:22.522Z,0
2016-06-15T01:43:22.525Z,0
2016-06-15T01:44:22.561Z,0
2016-06-15T01:45:22.563Z,0
2016-06-15T01:46:22.597Z,0
2016-06-15T01:47:36.803Z,0
2016-06-15T01:48:22.635Z,0
2016-06-15T01:49:22.669Z,0
2016-06-15T01:50:38.032Z,0
2016-06-15T01:51:22.722Z,0
2016-06-15T01:52:22.725Z,0
2016-06-15T01:53:36.947Z,0
2016-06-15T01:54:22.794Z,0
2016-06-15T01:55:22.656Z,0
2016-06-15T01:56:22.831Z,0
2016-06-15T01:57:22.865Z,0
2016-06-15T01:58:22.931Z,0
2016-06-15T01:59:22.904Z,0
2016-06-15T02:00:22.922Z,0
2016-06-15T02:01:37.128Z,0
2016-06-15T02:02:37.163Z,0
2016-06-15T02:04:23.028Z,0
2016-06-15T02:06:37.253Z,0
2016-06-15T02:07:23.084Z,0
2016-06-15T02:08:23.102Z,0
2016-06-15T02:09:23.137Z,0
2016-06-15T02:10:23.171Z,0
2016-06-15T02:11:23.191Z,0
2016-06-15T02:12:23.209Z,0
2016-06-15T02:13:23.259Z,0
2016-06-15T02:14:23.262Z,0
2016-06-15T02:15:37.468Z,0
2016-06-15T02:16:23.159Z,0
2016-06-15T02:18:23.352Z,0
2016-06-15T02:19:23.371Z,0
2016-06-15T02:20:24.046Z,0
2016-06-15T02:21:23.439Z,0
2016-06-15T02:22:23.443Z,0
2016-06-15T02:23:23.477Z,0
2016-06-15T02:24:37.684Z,0
2016-06-15T02:25:23.529Z,0
2016-06-15T02:26:23.548Z,0
2016-06-15T02:27:23.582Z,0
2016-06-15T02:28:23.602Z,0
2016-06-15T02:29:23.620Z,0
2016-06-15T02:30:37.827Z,0
2016-06-15T02:31:37.844Z,0
2016-06-15T02:32:23.692Z,0
2016-06-15T02:33:37.898Z,0
2016-06-15T02:34:37.917Z,0
2016-06-15T02:35:23.779Z,0
2016-06-15T02:36:23.642Z,0
2016-06-15T02:38:23.835Z,5
2016-06-15T02:39:23.854Z,5
2016-06-15T02:40:23.888Z,5
2016-06-15T02:41:23.908Z,5
2016-06-15T02:42:23.941Z,5
2016-06-15T02:43:38.148Z,5
2016-06-15T02:44:38.167Z,5
2016-06-15T02:45:23.998Z,10
2016-06-15T02:46:24.016Z,10
2016-06-15T02:47:23.894Z,10
2016-06-15T02:48:24.069Z,10
2016-06-15T02:49:24.088Z,10
2016-06-15T02:50:38.373Z,10
2016-06-15T02:51:24.000Z,10
2016-06-15T02:52:24.176Z,10
2016-06-15T02:53:24.037Z,10
2016-06-15T02:54:24.213Z,10
2016-06-15T02:55:24.247Z,10
2016-06-15T02:56:24.266Z,10
2016-06-15T02:57:24.284Z,15
2016-06-15T02:58:24.303Z,15
2016-06-15T02:59:38.508Z,15
2016-06-15T03:00:38.544Z,15
2016-06-15T03:01:24.390Z,15
2016-06-15T03:02:24.426Z,15
2016-06-15T03:03:24.443Z,20
2016-06-15T03:04:24.446Z,20
2016-06-15T03:05:24.871Z,20
2016-06-15T03:06:38.688Z,20
2016-06-15T03:07:24.519Z,25
2016-06-15T03:08:24.553Z,25
2016-06-15T03:09:24.572Z,25
2016-06-15T03:10:24.605Z,25
2016-06-15T03:11:24.625Z,25
2016-06-15T03:12:38.831Z,30
2016-06-15T03:13:24.662Z,30
2016-06-15T03:14:24.696Z,30
2016-06-15T03:15:38.902Z,30
2016-06-15T03:16:38.921Z,30
2016-06-15T03:17:24.769Z,35
2016-06-15T03:18:24.646Z,35
2016-06-15T03:19:24.820Z,35
2016-06-15T03:20:38.792Z,35
2016-06-15T03:22:39.064Z,35
2016-06-15T03:23:24.912Z,40
2016-06-15T03:24:24.929Z,40
2016-06-15T03:25:39.136Z,40
2016-06-15T03:26:24.983Z,40
2016-06-15T03:27:24.861Z,40
2016-06-15T03:28:25.036Z,40
2016-06-15T03:29:24.883Z,40
2016-06-15T03:30:24.917Z,40
2016-06-15T03:31:25.092Z,40
2016-06-15T03:32:25.126Z,40
2016-06-15T03:34:25.008Z,45
2016-06-15T03:35:39.385Z,50
2016-06-15T03:36:26.123Z,50
2016-06-15T03:37:39.423Z,55
2016-06-15T03:38:25.114Z,55
2016-06-15T03:39:25.289Z,60
2016-06-15T03:41:25.326Z,65
2016-06-15T03:42:25.360Z,65
2016-06-15T03:43:25.410Z,70
2016-06-15T03:44:25.413Z,70
2016-06-15T03:45:39.620Z,75
2016-06-15T03:46:39.638Z,75
2016-06-15T03:47:25.470Z,75
2016-06-15T03:48:25.503Z,80
2016-06-15T03:49:25.523Z,80
2016-06-15T03:50:25.415Z,80
2016-06-15T03:51:25.763Z,85
2016-06-15T03:52:25.593Z,85
2016-06-15T03:53:25.629Z,90
2016-06-15T03:54:25.646Z,95
2016-06-15T03:56:39.731Z,110
2016-06-15T03:57:25.719Z,100
2016-06-15T03:58:39.941Z,100
2016-06-15T03:59:25.834Z,110
2016-06-15T04:00:25.790Z,115
2016-06-15T04:01:25.825Z,135
2016-06-15T04:02:40.031Z,125
2016-06-15T04:03:25.863Z,135
2016-06-15T04:04:25.740Z,140
2016-06-15T04:05:26.119Z,155
2016-06-15T04:06:25.950Z,165
2016-06-15T04:07:25.968Z,175
2016-06-15T04:08:25.987Z,180
2016-06-15T04:09:54.381Z,220
2016-06-15T04:10:26.040Z,205
2016-06-15T04:11:26.059Z,210
2016-06-15T04:12:26.077Z,215
2016-06-15T04:13:26.111Z,215
2016-06-15T04:14:40.318Z,270
2016-06-15T04:15:26.165Z,280
2016-06-15T04:16:26.199Z,315
2016-06-15T04:17:40.390Z,235
2016-06-15T04:19:26.255Z,210
2016-06-15T04:20:26.977Z,215
2016-06-15T04:21:27.386Z,225
2016-06-15T04:22:26.343Z,230
2016-06-15T04:23:26.361Z,250
2016-06-15T04:24:26.381Z,295
2016-06-15T04:25:40.586Z,540
2016-06-15T04:26:26.277Z,320
2016-06-15T04:27:26.451Z,370
2016-06-15T04:28:26.471Z,315
2016-06-15T04:29:26.505Z,245
2016-06-15T04:30:26.524Z,175
2016-06-15T04:31:26.558Z,150
2016-06-15T04:32:26.592Z,135
2016-06-15T04:33:40.798Z,140
2016-06-15T04:34:40.817Z,130
2016-06-15T04:35:40.711Z,130
2016-06-15T04:36:26.917Z,130
2016-06-15T04:38:26.735Z,130
2016-06-15T04:39:26.770Z,135
2016-06-15T04:40:26.789Z,150
2016-06-15T04:41:41.010Z,215
2016-06-15T04:42:26.685Z,235
2016-06-15T04:43:26.875Z,285
2016-06-15T04:44:26.894Z,210
2016-06-15T04:45:26.756Z,165
2016-06-15T04:46:26.932Z,160
2016-06-15T04:47:26.965Z,130
2016-06-15T04:48:26.985Z,120
2016-06-15T04:49:41.207Z,105
2016-06-15T04:50:27.038Z,95
2016-06-15T04:51:26.932Z,95
2016-06-15T04:52:27.091Z,90
2016-06-15T04:53:27.125Z,90
2016-06-15T04:54:27.144Z,90
2016-06-15T04:55:27.178Z,90
2016-06-15T04:56:27.040Z,90
2016-06-15T04:57:41.404Z,100
2016-06-15T04:58:27.249Z,105
2016-06-15T04:59:27.285Z,115
2016-06-15T05:00:27.302Z,125
2016-06-15T05:01:27.322Z,165
2016-06-15T05:02:27.341Z,145
2016-06-15T05:03:27.375Z,135
2016-06-15T05:04:27.393Z,140
2016-06-15T05:05:27.428Z,140
2016-06-15T05:06:27.821Z,140
2016-06-15T05:07:27.465Z,150
2016-06-15T05:08:27.500Z,245
2016-06-15T05:09:27.518Z,200
2016-06-15T05:10:27.537Z,175
2016-06-15T05:11:27.414Z,180
2016-06-15T05:12:41.778Z,200
2016-06-15T05:13:27.468Z,230
2016-06-15T05:14:27.643Z,205
2016-06-15T05:15:27.677Z,185
2016-06-15T05:16:27.696Z,165
2016-06-15T05:17:41.902Z,160
2016-06-15T05:18:27.749Z,175
2016-06-15T05:19:27.769Z,230
2016-06-15T05:20:27.802Z,210
2016-06-15T05:21:28.118Z,190
2016-06-15T05:22:27.855Z,150
2016-06-15T05:23:42.062Z,145
2016-06-15T05:24:27.908Z,145
2016-06-15T05:25:27.787Z,145
2016-06-15T05:26:27.960Z,145
2016-06-15T05:27:27.980Z,150
2016-06-15T05:28:27.999Z,155
2016-06-15T05:29:28.033Z,155
2016-06-15T05:30:28.083Z,160
2016-06-15T05:31:28.086Z,165
2016-06-15T05:32:28.104Z,170
2016-06-15T05:33:28.123Z,175
2016-06-15T05:34:28.157Z,175
2016-06-15T05:35:42.208Z,160
2016-06-15T05:36:29.163Z,155
2016-06-15T05:37:42.416Z,150
2016-06-15T05:38:28.263Z,145
2016-06-15T05:39:42.469Z,140
2016-06-15T05:40:56.675Z,140
2016-06-15T05:42:28.370Z,145
2016-06-15T05:43:28.387Z,145
2016-06-15T05:44:42.610Z,140
2016-06-15T05:45:28.285Z,140
2016-06-15T05:46:28.461Z,135
2016-06-15T05:47:28.510Z,135
2016-06-15T05:48:28.545Z,135
2016-06-15T05:49:28.547Z,130
2016-06-15T05:50:28.581Z,125
2016-06-15T05:51:28.959Z,120
2016-06-15T05:52:28.651Z,115
2016-06-15T05:53:28.637Z,110
2016-06-15T05:55:28.690Z,105
2016-06-15T05:56:28.725Z,105
2016-06-15T05:57:28.744Z,100
2016-06-15T05:58:28.622Z,100
2016-06-15T05:59:28.656Z,100
2016-06-15T06:00:43.003Z,100
2016-06-15T06:01:43.100Z,95
2016-06-15T06:02:28.869Z,95
2016-06-15T06:03:28.887Z,95
2016-06-15T06:04:28.938Z,95
2016-06-15T06:05:28.955Z,95
2016-06-15T06:06:28.537Z,95
2016-06-15T06:07:29.009Z,95
2016-06-15T06:08:43.215Z,95
2016-06-15T06:09:29.046Z,95
2016-06-15T06:10:28.925Z,90
2016-06-15T06:11:43.287Z,100
2016-06-15T06:12:29.134Z,100
2016-06-15T06:13:29.153Z,95
2016-06-15T06:14:29.171Z,95
2016-06-15T06:15:29.206Z,95
2016-06-15T06:16:43.411Z,95
2016-06-15T06:17:29.259Z,95
2016-06-15T06:18:29.277Z,95
2016-06-15T06:19:29.296Z,95
2016-06-15T06:20:29.174Z,95
2016-06-15T06:22:29.383Z,95
2016-06-15T06:23:29.402Z,90
2016-06-15T06:24:29.421Z,90
2016-06-15T06:25:29.455Z,90
2016-06-15T06:26:29.489Z,85
2016-06-15T06:27:43.695Z,85
2016-06-15T06:28:29.526Z,85
2016-06-15T06:29:29.562Z,80
2016-06-15T06:30:29.595Z,80
2016-06-15T06:31:29.458Z,85
2016-06-15T06:32:43.663Z,85
2016-06-15T06:33:29.667Z,90
2016-06-15T06:34:29.702Z,90
2016-06-15T06:35:29.720Z,95
2016-06-15T06:36:30.364Z,95
2016-06-15T06:37:29.632Z,100
2016-06-15T06:38:29.792Z,105
2016-06-15T06:39:29.810Z,110
2016-06-15T06:40:29.845Z,115
2016-06-15T06:41:29.863Z,115
2016-06-15T06:42:29.726Z,115
2016-06-15T06:43:29.916Z,110
2016-06-15T06:44:35.466Z,110
2016-06-15T06:45:30.095Z,110
2016-06-15T06:46:29.972Z,110
2016-06-15T06:47:44.195Z,105
2016-06-15T06:48:44.228Z,105
2016-06-15T06:49:30.060Z,105
2016-06-15T06:50:30.110Z,100
2016-06-15T06:52:30.132Z,100
2016-06-15T06:53:44.338Z,100
2016-06-15T06:54:30.185Z,95
2016-06-15T06:55:30.204Z,95
2016-06-15T06:56:30.237Z,95
2016-06-15T06:58:30.275Z,95
2016-06-15T06:59:30.310Z,90
2016-06-15T07:00:30.188Z,90
2016-06-15T07:01:30.363Z,90
2016-06-15T07:03:30.416Z,90
2016-06-15T07:04:30.450Z,90
2016-06-15T07:05:30.469Z,90
2016-06-15T07:06:31.284Z,90
2016-06-15T07:07:30.506Z,90
2016-06-15T07:08:30.540Z,90
2016-06-15T07:09:30.668Z,95
2016-06-15T07:10:30.593Z,95
2016-06-15T07:11:30.613Z,95
2016-06-15T07:12:47.849Z,100
2016-06-15T07:13:44.853Z,100
2016-06-15T07:14:30.683Z,100
2016-06-15T07:15:30.718Z,100
2016-06-15T07:16:30.753Z,95
2016-06-15T07:17:44.959Z,95
2016-06-15T07:18:30.634Z,95
2016-06-15T07:19:44.996Z,95
2016-06-15T07:20:30.843Z,95
2016-06-15T07:21:31.144Z,95
2016-06-15T07:22:30.911Z,100
2016-06-15T07:23:30.930Z,100
2016-06-15T07:24:45.136Z,100
2016-06-15T07:25:30.984Z,105
2016-06-15T07:26:30.845Z,105
2016-06-15T07:27:45.208Z,105
2016-06-15T07:28:31.055Z,105
2016-06-15T07:29:31.058Z,105
2016-06-15T07:30:31.108Z,100
2016-06-15T07:31:31.127Z,100
2016-06-15T07:32:31.145Z,100
2016-06-15T07:34:31.198Z,100
2016-06-15T07:35:45.920Z,95
2016-06-15T07:36:31.657Z,95
2016-06-15T07:37:32.254Z,100
2016-06-15T07:38:31.288Z,100
2016-06-15T07:39:31.432Z,95
2016-06-15T07:40:31.342Z,95
2016-06-15T07:41:31.376Z,95
2016-06-15T07:42:31.410Z,90
2016-06-15T07:43:31.429Z,85
2016-06-15T07:44:31.448Z,80
2016-06-15T07:45:45.654Z,70
2016-06-15T07:46:31.501Z,65
2016-06-15T07:47:31.379Z,60
2016-06-15T07:48:31.397Z,55
2016-06-15T07:49:31.572Z,55
2016-06-15T07:50:31.450Z,55
2016-06-15T07:51:46.063Z,55
2016-06-15T07:52:31.770Z,60
2016-06-15T07:53:59.897Z,65
2016-06-15T07:54:45.884Z,65
2016-06-15T07:55:31.732Z,70
2016-06-15T07:56:31.751Z,75
2016-06-15T07:57:31.785Z,80
2016-06-15T07:58:31.646Z,80
2016-06-15T07:59:31.822Z,85
2016-06-15T08:00:46.591Z,85
2016-06-15T08:01:31.891Z,85
2016-06-15T08:02:31.909Z,90
2016-06-15T08:03:46.115Z,90
2016-06-15T08:04:31.962Z,90
2016-06-15T08:05:31.981Z,90
2016-06-15T08:07:46.221Z,85
2016-06-15T08:08:32.053Z,85
2016-06-15T08:09:32.087Z,85
2016-06-15T08:10:32.105Z,85
2016-06-15T08:11:32.125Z,85
2016-06-15T08:12:32.158Z,90
2016-06-15T08:13:46.365Z,90
2016-06-15T08:14:32.212Z,95
2016-06-15T08:15:32.293Z,95
2016-06-15T08:16:32.359Z,100
2016-06-15T08:17:32.299Z,100
2016-06-15T08:18:32.036Z,100
2016-06-15T08:19:32.383Z,100
2016-06-15T08:20:32.370Z,95
2016-06-15T08:21:36.281Z,95
2016-06-15T08:22:46.658Z,95
2016-06-15T08:23:34.193Z,90
2016-06-15T08:24:32.618Z,90
2016-06-15T08:25:32.496Z,95
2016-06-15T08:26:32.202Z,95
2016-06-15T08:27:32.392Z,95
2016-06-15T08:28:32.427Z,95
2016-06-15T08:29:46.633Z,95
2016-06-15T08:30:32.480Z,95
2016-06-15T08:31:32.639Z,95
2016-06-15T08:32:32.674Z,90
2016-06-15T08:33:32.692Z,85
2016-06-15T08:34:32.711Z,80
2016-06-15T08:35:32.746Z,75
2016-06-15T08:36:32.624Z,65
2016-06-15T08:37:33.142Z,65
2016-06-15T08:38:32.816Z,65
2016-06-15T08:39:32.851Z,65
2016-06-15T08:40:32.870Z,65
2016-06-15T08:41:32.904Z,70
2016-06-15T08:42:32.923Z,70
2016-06-15T08:43:32.941Z,70
2016-06-15T08:44:32.976Z,70
2016-06-15T08:45:32.995Z,70
2016-06-15T08:46:47.200Z,70
2016-06-15T08:47:32.892Z,65
2016-06-15T08:49:01.441Z,65
2016-06-15T08:50:32.979Z,65
2016-06-15T08:51:34.340Z,65
2016-06-15T08:52:34.032Z,70
2016-06-15T08:53:33.190Z,70
2016-06-15T08:55:33.244Z,70
2016-06-15T08:56:33.278Z,70
2016-06-15T08:57:33.297Z,70
2016-06-15T08:58:33.159Z,70
2016-06-15T08:59:33.350Z,75
2016-06-15T09:00:35.384Z,75
2016-06-15T09:01:36.451Z,75
2016-06-15T09:02:33.422Z,75
2016-06-15T09:03:33.457Z,75
2016-06-15T09:04:33.475Z,75
2016-06-15T09:05:33.494Z,80
2016-06-15T09:06:33.825Z,80
2016-06-15T09:07:33.422Z,80
2016-06-15T09:08:33.566Z,80
2016-06-15T09:09:33.600Z,80
2016-06-15T09:10:47.806Z,80
2016-06-15T09:11:47.841Z,80
2016-06-15T09:13:54.622Z,75
2016-06-15T09:14:33.700Z,75
2016-06-15T09:16:07.424Z,75
2016-06-15T09:16:33.768Z,75
2016-06-15T09:17:33.818Z,75
2016-06-15T09:18:33.822Z,75
2016-06-15T09:19:33.855Z,75
2016-06-15T09:20:33.889Z,75
2016-06-15T09:21:33.909Z,75
2016-06-15T09:22:33.630Z,75
2016-06-15T09:23:33.946Z,75
2016-06-15T09:24:33.964Z,75
2016-06-15T09:25:33.999Z,75
2016-06-15T09:26:48.068Z,75
2016-06-15T09:27:34.036Z,75
2016-06-15T09:28:34.086Z,80
2016-06-15T09:30:34.118Z,80
2016-06-15T09:31:33.996Z,80
2016-06-15T09:32:48.362Z,80
2016-06-15T09:33:34.050Z,80
2016-06-15T09:35:48.434Z,80
2016-06-15T09:36:48.482Z,80
2016-06-15T09:37:34.561Z,80
2016-06-15T09:38:34.329Z,80
2016-06-15T09:40:34.383Z,80
2016-06-15T09:41:34.402Z,80
2016-06-15T09:42:48.608Z,80
2016-06-15T09:43:34.439Z,80
2016-06-15T09:44:34.473Z,80
2016-06-15T09:45:34.508Z,80
2016-06-15T09:46:48.714Z,80
2016-06-15T09:47:34.560Z,80
2016-06-15T09:48:34.423Z,80
2016-06-15T09:49:34.474Z,80
2016-06-15T09:50:48.726Z,80
2016-06-15T09:51:48.698Z,80
2016-06-15T09:52:35.842Z,80
2016-06-15T09:54:34.722Z,75
2016-06-15T09:55:34.742Z,70
2016-06-15T09:56:34.791Z,60
2016-06-15T09:57:48.998Z,50
2016-06-15T09:58:34.829Z,45
2016-06-15T10:01:34.900Z,40
2016-06-15T10:02:34.934Z,40
2016-06-15T10:03:34.812Z,45
2016-06-15T10:05:35.065Z,45
2016-06-15T10:06:49.714Z,50
2016-06-15T10:08:35.256Z,60
2016-06-15T10:09:49.506Z,60
2016-06-15T10:10:35.384Z,60
2016-06-15T10:12:35.433Z,75
2016-06-15T10:13:49.639Z,80
2016-06-15T10:14:35.511Z,85
2016-06-15T10:15:35.519Z,85
2016-06-15T10:16:37.402Z,85
2016-06-15T10:17:53.544Z,90
2016-06-15T10:18:35.653Z,90
2016-06-15T10:19:35.645Z,95
2016-06-15T10:20:35.665Z,100
2016-06-15T10:21:50.436Z,100
2016-06-15T10:22:36.347Z,100
2016-06-15T10:23:49.930Z,95
2016-06-15T10:25:49.985Z,100
2016-06-15T10:26:35.833Z,105
2016-06-15T10:27:50.038Z,105
2016-06-15T10:28:35.886Z,110
2016-06-15T10:29:53.093Z,115
2016-06-15T10:30:35.940Z,120
2016-06-15T10:31:50.146Z,125
2016-06-15T10:32:35.994Z,130
2016-06-15T10:33:36.028Z,140
2016-06-15T10:34:36.032Z,145
2016-06-15T10:35:39.332Z,150
2016-06-15T10:36:52.100Z,155
2016-06-15T10:38:04.888Z,160
2016-06-15T10:39:23.750Z,165
2016-06-15T10:40:37.379Z,175
2016-06-15T10:41:30.851Z,180
2016-06-15T10:42:32.760Z,190
2016-06-15T10:43:00.526Z,190
2016-06-15T10:43:49.622Z,185
2016-06-15T10:46:17.320Z,195
2016-06-15T10:47:42.134Z,195
2016-06-15T10:48:44.684Z,200
2016-06-15T10:49:38.220Z,200
2016-06-15T10:50:44.082Z,200
2016-06-15T10:51:42.163Z,195
2016-06-15T10:53:01.307Z,195
2016-06-15T10:54:10.091Z,195
2016-06-15T10:55:21.206Z,195
2016-06-15T10:55:59.003Z,200
2016-06-15T10:56:35.147Z,200
2016-06-15T10:57:35.165Z,200
2016-06-15T10:58:49.215Z,200
2016-06-15T10:59:35.219Z,200
2016-06-15T11:00:49.425Z,200
2016-06-15T11:01:35.272Z,200
2016-06-15T11:02:49.510Z,200
2016-06-15T11:03:35.325Z,200
2016-06-15T11:04:35.344Z,200
2016-06-15T11:05:35.378Z,195
2016-06-15T11:06:49.976Z,195
2016-06-15T11:07:36.087Z,195
2016-06-15T11:08:49.637Z,195
2016-06-15T11:09:35.500Z,190
2016-06-15T11:10:49.690Z,185
2016-06-15T11:11:49.725Z,190
2016-06-15T11:12:36.791Z,195
2016-06-15T11:13:35.575Z,195
2016-06-15T11:14:35.608Z,195
2016-06-15T11:15:49.831Z,190
2016-06-15T11:16:49.849Z,185
2016-06-15T11:17:35.681Z,185
2016-06-15T11:18:35.700Z,190
2016-06-15T11:19:35.733Z,190
2016-06-15T11:20:35.612Z,195
2016-06-15T11:21:35.803Z,200
2016-06-15T11:22:36.227Z,200
2016-06-15T11:23:35.839Z,200
2016-06-15T11:25:35.892Z,190
2016-06-15T11:26:35.912Z,185
2016-06-15T11:28:04.321Z,175
2016-06-15T11:28:35.979Z,170
2016-06-15T11:29:35.843Z,165
2016-06-15T11:30:35.721Z,160
2016-06-15T11:31:50.224Z,155
2016-06-15T11:32:50.258Z,155
2016-06-15T11:33:36.105Z,155
2016-06-15T11:34:36.154Z,155
2016-06-15T11:35:36.002Z,145
2016-06-15T11:36:36.193Z,140
2016-06-15T11:37:36.632Z,135
2016-06-15T11:38:36.229Z,135
2016-06-15T11:39:36.263Z,135
2016-06-15T11:40:36.297Z,135
2016-06-15T11:41:36.333Z,135
2016-06-15T11:42:50.523Z,140
2016-06-15T11:43:36.370Z,140
2016-06-15T11:44:36.389Z,140
2016-06-15T11:45:36.423Z,145
2016-06-15T11:46:36.442Z,145
2016-06-15T11:47:50.648Z,145
2016-06-15T11:48:36.494Z,145
2016-06-15T11:50:36.547Z,145
2016-06-15T11:51:36.567Z,145
2016-06-15T11:52:51.789Z,150
2016-06-15T11:53:36.620Z,150
2016-06-15T11:54:50.841Z,155
2016-06-15T11:55:36.687Z,155
2016-06-15T11:56:36.707Z,155
2016-06-15T11:57:50.913Z,155
2016-06-15T11:58:36.760Z,155
2016-06-15T11:59:50.967Z,150
2016-06-15T12:01:36.832Z,150
2016-06-15T12:02:36.866Z,150
2016-06-15T12:03:36.885Z,145
2016-06-15T12:04:36.763Z,140
2016-06-15T12:05:36.953Z,135
2016-06-15T12:06:51.144Z,130
2016-06-15T12:07:37.146Z,130
2016-06-15T12:08:37.025Z,125
2016-06-15T12:09:37.044Z,125
2016-06-15T12:10:37.078Z,120
2016-06-15T12:11:51.128Z,120
2016-06-15T12:12:51.162Z,120
2016-06-15T12:13:37.149Z,120
2016-06-15T12:14:37.200Z,115
2016-06-15T12:15:51.375Z,115
2016-06-15T12:16:37.221Z,115
2016-06-15T12:17:37.255Z,115
2016-06-15T12:18:37.275Z,115
2016-06-15T12:19:51.497Z,115
2016-06-15T12:20:37.328Z,115
2016-06-15T12:21:37.190Z,120
2016-06-15T12:22:51.958Z,120
2016-06-15T12:23:37.399Z,115
2016-06-15T12:24:37.433Z,115
2016-06-15T12:25:37.452Z,110
2016-06-15T12:26:37.502Z,105
2016-06-15T12:27:51.708Z,105
2016-06-15T12:28:37.539Z,105
2016-06-15T12:30:05.918Z,105
2016-06-15T12:30:51.765Z,100
2016-06-15T12:31:37.612Z,100
2016-06-15T12:32:37.645Z,95
2016-06-15T12:33:37.664Z,100
2016-06-15T12:34:37.543Z,105
2016-06-15T12:35:51.905Z,105
2016-06-15T12:36:37.735Z,100
2016-06-15T12:37:37.895Z,110
2016-06-15T12:38:37.789Z,115
2016-06-15T12:39:37.667Z,125
2016-06-15T12:40:52.030Z,130
2016-06-15T12:41:37.876Z,140
2016-06-15T12:43:37.616Z,160
2016-06-15T12:44:52.136Z,180
2016-06-15T12:45:37.827Z,185
2016-06-15T12:46:52.173Z,195
2016-06-15T12:47:38.036Z,195
2016-06-15T12:48:38.053Z,195
2016-06-15T12:49:38.089Z,195
2016-06-15T12:50:38.107Z,190
2016-06-15T12:51:52.313Z,195
2016-06-15T12:52:38.519Z,190
2016-06-15T12:53:38.194Z,190
2016-06-15T12:54:38.214Z,190
2016-06-15T12:55:38.232Z,190
2016-06-15T12:56:38.281Z,185
2016-06-15T12:57:38.284Z,175
2016-06-15T12:58:38.163Z,160
2016-06-15T12:59:38.198Z,140
2016-06-15T13:00:38.357Z,120
2016-06-15T13:01:38.391Z,115
2016-06-15T13:02:38.410Z,120
2016-06-15T13:03:38.475Z,135
2016-06-15T13:04:52.650Z,145
2016-06-15T13:05:38.497Z,150
2016-06-15T13:06:38.359Z,165
2016-06-15T13:08:38.584Z,175
2016-06-15T13:09:38.604Z,175
2016-06-15T13:11:38.656Z,175
2016-06-15T13:12:38.691Z,180
2016-06-15T13:13:38.708Z,175
2016-06-15T13:14:38.728Z,165
2016-06-15T13:15:38.762Z,165
2016-06-15T13:16:38.812Z,165
2016-06-15T13:17:38.815Z,165
2016-06-15T13:18:38.834Z,160
2016-06-15T13:19:38.868Z,155
2016-06-15T13:20:38.903Z,155
2016-06-15T13:22:53.127Z,165
2016-06-15T13:23:38.975Z,180
2016-06-15T13:24:53.196Z,190
2016-06-15T13:25:39.028Z,195
2016-06-15T13:26:39.062Z,205
2016-06-15T13:27:38.924Z,210
2016-06-15T13:28:53.286Z,215
2016-06-15T13:30:53.340Z,225
2016-06-15T13:31:39.186Z,230
2016-06-15T13:32:53.392Z,235
2016-06-15T13:33:53.442Z,240
2016-06-15T13:34:39.259Z,240
2016-06-15T13:35:39.292Z,245
2016-06-15T13:36:39.312Z,245
2016-06-15T13:37:39.424Z,240
2016-06-15T13:38:39.380Z,240
2016-06-15T13:40:39.417Z,235
2016-06-15T13:41:39.452Z,235
2016-06-15T13:42:53.658Z,235
2016-06-15T13:43:39.505Z,235
2016-06-15T13:44:39.384Z,230
2016-06-15T13:45:39.401Z,240
2016-06-15T13:46:53.779Z,245
2016-06-15T13:47:53.799Z,240
2016-06-15T13:48:39.489Z,230
2016-06-15T13:50:39.698Z,230
2016-06-15T13:51:39.716Z,230
2016-06-15T13:52:39.939Z,230
2016-06-15T13:53:39.629Z,235
2016-06-15T13:54:53.992Z,245
2016-06-15T13:55:39.838Z,245
2016-06-15T13:56:39.873Z,245
2016-06-15T13:57:54.079Z,250
2016-06-15T13:58:39.926Z,255
2016-06-15T13:59:39.944Z,245
2016-06-15T14:00:39.963Z,245
2016-06-15T14:01:39.981Z,245
2016-06-15T14:02:54.204Z,240
2016-06-15T14:03:40.050Z,245
2016-06-15T14:04:40.085Z,245
2016-06-15T14:05:40.104Z,255
2016-06-15T14:06:39.982Z,255
2016-06-15T14:07:40.219Z,255
2016-06-15T14:08:40.535Z,245
2016-06-15T14:09:54.397Z,245
2016-06-15T14:10:54.431Z,250
2016-06-15T14:11:40.278Z,255
2016-06-15T14:12:40.298Z,250
2016-06-15T14:13:40.331Z,250
2016-06-15T14:14:40.351Z,250
2016-06-15T14:15:40.385Z,250
2016-06-15T14:16:40.403Z,255
2016-06-15T14:17:40.438Z,255
2016-06-15T14:18:40.316Z,260
2016-06-15T14:19:54.678Z,260
2016-06-15T14:20:40.572Z,250
2016-06-15T14:21:40.590Z,255
2016-06-15T14:22:41.296Z,255
2016-06-15T14:23:54.846Z,250
2016-06-15T14:24:40.631Z,250
2016-06-15T14:25:54.853Z,265
2016-06-15T14:26:54.887Z,260
2016-06-15T14:27:54.905Z,225
2016-06-15T14:28:40.737Z,215
2016-06-15T14:29:40.803Z,210
2016-06-15T14:30:40.633Z,210
2016-06-15T14:31:41.168Z,215
2016-06-15T14:32:40.545Z,210
2016-06-15T14:33:40.893Z,205
2016-06-15T14:34:40.912Z,210
2016-06-15T14:35:40.946Z,210
2016-06-15T14:36:40.980Z,205
2016-06-15T14:37:41.577Z,205
2016-06-15T14:38:41.065Z,200
2016-06-15T14:39:41.052Z,200
2016-06-15T14:40:41.071Z,195
2016-06-15T14:41:55.292Z,190
2016-06-15T14:42:55.311Z,190
2016-06-15T14:43:41.158Z,190
2016-06-15T14:44:41.176Z,195
2016-06-15T14:45:41.055Z,205
2016-06-15T14:46:41.244Z,220
2016-06-15T14:47:41.280Z,225
2016-06-15T14:48:41.298Z,225
2016-06-15T14:49:55.520Z,215
2016-06-15T14:50:41.336Z,210
2016-06-15T14:51:41.214Z,205
2016-06-15T14:52:41.404Z,210
2016-06-15T14:53:42.235Z,210
2016-06-15T14:54:41.457Z,205
2016-06-15T14:55:41.492Z,215
2016-06-15T14:56:41.526Z,235
2016-06-15T14:57:55.716Z,240
2016-06-15T14:58:41.564Z,205